Time;durP1;ratioP1;P1;durP2;ratioP2;P2;SDS_P1;SDS_P2;PMS_P1;PMS_P2;Temp;Humidity;BMP_temperature;BMP_pressure;BME280_temperature;BME280_humidity;BME280_pressure;Samples;Min_cycle;Max_cycle;Signal;HPM_P1;HPM_P2
2022/04/27 00:01:57;;;;;;;31.50;21.00;;;;;;;7.96;69.14;100478.41;130478;1268;108768;-79
2022/04/27 00:05:03;;;;;;;35.30;23.10;;;;;;;7.97;69.04;100476.52;130336;1268;108063;-78
2022/04/27 00:08:09;;;;;;;35.70;22.80;;;;;;;7.96;69.17;100476.64;130379;1267;108722;-78
2022/04/27 00:11:15;;;;;;;34.90;22.10;;;;;;;7.93;69.13;100479.52;130439;1267;108648;-78
2022/04/27 00:14:22;;;;;;;32.30;22.10;;;;;;;7.88;69.16;100478.15;130462;1267;108798;-79
2022/04/27 00:17:28;;;;;;;35.80;22.40;;;;;;;7.80;69.39;100476.67;130428;1268;108769;-75
2022/04/27 00:20:33;;;;;;;35.20;22.70;;;;;;;7.71;69.07;100477.11;130379;1267;108619;-76
2022/04/27 00:23:39;;;;;;;34.00;21.80;;;;;;;7.62;69.20;100478.75;130440;1267;106988;-79
2022/04/27 00:26:45;;;;;;;33.60;21.50;;;;;;;7.50;69.12;100480.28;130226;1268;108665;-78
2022/04/27 00:29:51;;;;;;;35.30;22.70;;;;;;;7.37;69.01;100482.09;130354;1268;108747;-74
2022/04/27 00:32:56;;;;;;;35.50;21.30;;;;;;;7.27;68.99;100486.13;130461;1268;108695;-75
2022/04/27 00:36:02;;;;;;;36.50;23.50;;;;;;;7.19;69.33;100490.94;130484;1268;107681;-75
2022/04/27 00:39:07;;;;;;;33.90;20.80;;;;;;;7.11;69.32;100493.22;130333;1267;108735;-76
2022/04/27 00:42:19;;;;;;;32.30;19.50;;;;;;;7.03;69.34;100493.85;130388;1268;108970;-77
2022/04/27 00:45:25;;;;;;;35.00;21.00;;;;;;;6.97;69.07;100497.35;130427;1268;108987;-77
2022/04/27 00:48:30;;;;;;;34.10;22.00;;;;;;;6.94;69.25;100498.88;130414;1267;108946;-78
2022/04/27 00:51:36;;;;;;;35.30;23.30;;;;;;;6.89;69.12;100499.61;130366;1268;108958;-78
2022/04/27 00:54:43;;;;;;;38.20;23.60;;;;;;;6.86;68.93;100501.63;130285;1267;108918;-76
2022/04/27 00:57:49;;;;;;;35.10;22.80;;;;;;;6.81;68.97;100502.70;130466;1267;107503;-76
2022/04/27 01:00:55;;;;;;;34.10;22.40;;;;;;;6.78;68.91;100501.94;130390;1268;109116;-76
2022/04/27 01:04:01;;;;;;;32.70;21.90;;;;;;;6.72;68.77;100506.98;130371;1268;108741;-76
2022/04/27 01:07:07;;;;;;;34.10;22.60;;;;;;;6.65;68.74;100508.71;130227;1268;107385;-77
2022/04/27 01:10:13;;;;;;;35.60;22.10;;;;;;;6.57;68.77;100505.69;130368;1268;108944;-77
2022/04/27 01:13:20;;;;;;;32.00;20.70;;;;;;;6.47;68.71;100510.31;130371;1268;108670;-78
2022/04/27 01:16:29;;;;;;;32.20;20.60;;;;;;;6.39;68.58;100511.88;130253;1268;108942;-78
2022/04/27 01:19:35;;;;;;;35.00;21.50;;;;;;;6.30;68.74;100511.83;130431;1268;108823;-78
2022/04/27 01:22:41;;;;;;;34.10;22.10;;;;;;;6.21;68.59;100510.39;130358;1268;108631;-76
2022/04/27 01:25:52;;;;;;;37.40;22.40;;;;;;;6.09;68.55;100508.69;130248;1268;107848;-76
2022/04/27 01:28:59;;;;;;;34.20;21.80;;;;;;;5.97;68.61;100508.38;130459;1267;108673;-79
2022/04/27 01:32:06;;;;;;;34.40;22.40;;;;;;;5.90;68.59;100510.63;130516;1267;107721;-80
2022/04/27 01:35:12;;;;;;;32.90;20.10;;;;;;;5.83;68.61;100510.98;130436;1267;108864;-77
2022/04/27 01:38:18;;;;;;;33.40;20.40;;;;;;;5.79;68.60;100511.12;130202;1268;200678;-79
2022/04/27 01:41:24;;;;;;;33.40;20.70;;;;;;;5.78;68.52;100512.10;130433;1268;108737;-78
2022/04/27 01:44:29;;;;;;;34.20;21.70;;;;;;;5.76;68.54;100513.98;130420;1268;108187;-78
2022/04/27 01:47:36;;;;;;;34.80;21.30;;;;;;;5.75;68.41;100514.58;130453;1268;108734;-80
2022/04/27 01:50:41;;;;;;;34.90;22.40;;;;;;;5.73;68.46;100512.79;130430;1267;109197;-76
2022/04/27 01:57:12;;;;;;;34.90;21.50;;;;;;;5.65;68.25;100513.05;130126;1270;108709;-79
2022/04/27 02:00:20;;;;;;;36.20;21.90;;;;;;;5.60;68.15;100515.56;130422;1268;107434;-80
2022/04/27 02:03:26;;;;;;;38.50;22.10;;;;;;;5.51;68.23;100517.09;130265;1267;108730;-79
2022/04/27 02:06:35;;;;;;;35.70;21.90;;;;;;;5.43;68.13;100523.13;130447;1268;108055;-80
2022/04/27 02:09:41;;;;;;;37.00;22.70;;;;;;;5.37;68.32;100523.02;130438;1268;108801;-78
2022/04/27 02:12:47;;;;;;;38.80;23.10;;;;;;;5.32;68.18;100522.35;130274;1268;107478;-80
2022/04/27 02:16:00;;;;;;;36.30;22.60;;;;;;;5.23;68.23;100521.25;130396;1268;108819;-79
2022/04/27 02:19:13;;;;;;;37.40;23.40;;;;;;;5.19;68.31;100524.55;130254;1268;108793;-80
2022/04/27 02:22:19;;;;;;;37.30;23.20;;;;;;;5.15;68.25;100523.61;130419;1267;108751;-79
2022/04/27 02:25:24;;;;;;;40.50;23.70;;;;;;;5.13;68.30;100530.13;130257;1268;108758;-80
2022/04/27 02:28:30;;;;;;;39.40;23.80;;;;;;;5.12;68.41;100532.30;130458;1267;107615;-79
2022/04/27 02:31:36;;;;;;;39.20;23.50;;;;;;;5.08;68.34;100535.41;130391;1268;108900;-78
2022/04/27 02:34:42;;;;;;;37.00;23.30;;;;;;;5.05;68.31;100536.48;130208;1268;108706;-79
2022/04/27 02:37:48;;;;;;;39.20;24.40;;;;;;;5.00;68.25;100531.41;130510;1268;108951;-77
2022/04/27 02:40:55;;;;;;;35.90;22.40;;;;;;;4.96;68.24;100532.20;130460;1268;108610;-77
2022/04/27 02:44:01;;;;;;;39.50;21.80;;;;;;;4.93;68.20;100532.98;130196;1268;108775;-78
2022/04/27 02:47:07;;;;;;;35.90;21.00;;;;;;;4.91;68.08;100537.98;130232;1268;108764;-78
2022/04/27 02:53:38;;;;;;;39.10;23.80;;;;;;;4.98;68.20;100546.64;130307;1268;108800;-73
2022/04/27 02:56:45;;;;;;;44.70;24.70;;;;;;;5.04;68.15;100549.42;130380;1268;108701;-73
2022/04/27 02:59:51;;;;;;;38.80;24.10;;;;;;;5.03;67.96;100546.88;130368;1268;108695;-73
2022/04/27 03:02:57;;;;;;;43.50;25.50;;;;;;;4.97;67.99;100552.20;130191;1270;109120;-78
2022/04/27 03:06:06;;;;;;;41.10;25.20;;;;;;;4.93;67.93;100551.09;130634;1268;108871;-75
2022/04/27 03:09:16;;;;;;;43.10;25.70;;;;;;;4.91;67.99;100553.58;130437;1268;107972;-73
2022/04/27 03:12:23;;;;;;;39.90;24.40;;;;;;;4.84;67.82;100559.84;130493;1268;107697;-73
2022/04/27 03:15:31;;;;;;;43.30;26.20;;;;;;;4.75;67.66;100562.30;130251;1270;108849;-75
2022/04/27 03:18:37;;;;;;;40.50;24.70;;;;;;;4.67;67.87;100557.35;130446;1268;108900;-77
2022/04/27 03:21:43;;;;;;;43.10;26.20;;;;;;;4.62;67.89;100566.64;130421;1268;109059;-75
2022/04/27 03:24:49;;;;;;;46.90;27.00;;;;;;;4.56;67.83;100565.66;130204;1269;108960;-76
2022/04/27 03:27:57;;;;;;;43.90;25.80;;;;;;;4.54;67.71;100564.26;130296;1271;108743;-75
2022/04/27 03:31:03;;;;;;;45.40;26.10;;;;;;;4.48;67.80;100569.02;130453;1268;108873;-76
2022/04/27 03:34:15;;;;;;;41.00;26.10;;;;;;;4.43;67.79;100563.77;130489;1267;108805;-76
2022/04/27 03:37:21;;;;;;;45.10;26.80;;;;;;;4.40;67.86;100568.41;130353;1267;108688;-76
2022/04/27 03:40:27;;;;;;;44.40;26.40;;;;;;;4.37;67.81;100574.02;130163;1270;108758;-78
2022/04/27 03:43:32;;;;;;;45.80;27.00;;;;;;;4.40;67.90;100575.25;130292;1268;109040;-76
2022/04/27 03:46:38;;;;;;;43.70;25.00;;;;;;;4.39;68.17;100578.70;130522;1267;108803;-77
2022/04/27 03:49:43;;;;;;;42.10;26.60;;;;;;;4.40;67.97;100581.05;130330;1268;108859;-78
2022/04/27 03:52:49;;;;;;;45.00;25.00;;;;;;;4.44;67.85;100580.93;130330;1268;108024;-77
2022/04/27 03:55:55;;;;;;;44.00;24.70;;;;;;;4.47;67.85;100587.64;130512;1268;108954;-77
2022/04/27 03:59:00;;;;;;;37.80;22.30;;;;;;;4.54;67.93;100593.67;130338;1268;108722;-77
2022/04/27 04:02:07;;;;;;;38.20;23.90;;;;;;;4.69;67.92;100596.13;130208;1268;108695;-77
2022/04/27 04:05:13;;;;;;;44.60;27.20;;;;;;;4.89;67.98;100601.81;130379;1267;108915;-77
2022/04/27 04:08:19;;;;;;;41.50;25.50;;;;;;;5.04;67.83;100608.17;130447;1267;108631;-77
2022/04/27 04:11:26;;;;;;;38.70;25.00;;;;;;;5.14;67.72;100608.16;130390;1268;107675;-77
2022/04/27 04:14:50;;;;;;;42.40;25.30;;;;;;;5.24;67.73;100610.09;130379;1268;108776;-78
2022/04/27 04:18:14;;;;;;;41.30;25.60;;;;;;;5.36;67.65;100616.09;130374;1268;108840;-78
2022/04/27 04:21:42;;;;;;;40.20;24.90;;;;;;;5.40;67.87;100618.63;130412;1268;108756;-79
2022/04/27 04:28:30;;;;;;;37.70;24.90;;;;;;;5.77;67.94;100623.91;130249;1268;108735;-80
2022/04/27 04:31:36;;;;;;;39.60;26.00;;;;;;;6.01;68.34;100625.51;130574;1268;108742;-84
2022/04/27 04:34:42;;;;;;;39.40;25.60;;;;;;;6.24;68.30;100618.80;130689;1267;108975;-83
2022/04/27 04:37:51;;;;;;;38.90;25.20;;;;;;;6.49;68.23;100617.63;130561;1268;108954;-81
2022/04/27 04:40:57;;;;;;;40.50;26.00;;;;;;;6.70;68.36;100620.75;130588;1268;108642;-83
2022/04/27 04:44:11;;;;;;;37.90;22.30;;;;;;;7.00;68.88;100626.39;130399;1267;108916;-84
2022/04/27 04:47:37;;;;;;;33.60;21.30;;;;;;;7.35;68.67;100625.80;130820;1268;109089;-82
2022/04/27 04:51:01;;;;;;;37.90;22.90;;;;;;;7.66;68.63;100623.65;130658;1268;108717;-84
2022/04/27 04:54:28;;;;;;;36.50;24.40;;;;;;;7.99;68.97;100624.10;130530;1267;108682;-81
2022/04/27 04:57:46;;;;;;;37.40;25.10;;;;;;;8.33;68.95;100625.86;130785;1268;108681;-82
2022/04/27 05:01:12;;;;;;;39.10;25.80;;;;;;;8.73;69.17;100627.13;130609;1268;108745;-82
2022/04/27 05:04:37;;;;;;;38.50;25.50;;;;;;;9.08;69.17;100634.39;130767;1268;108881;-81
2022/04/27 05:07:58;;;;;;;38.00;26.10;;;;;;;9.27;69.19;100632.20;130416;1268;108668;-86
2022/04/27 05:11:19;;;;;;;36.50;25.80;;;;;;;9.39;69.33;100639.29;130474;1268;108698;-80
2022/04/27 05:14:56;;;;;;;36.50;24.60;;;;;;;9.48;69.56;100644.02;130279;1268;108797;-81
2022/04/27 05:18:35;;;;;;;37.00;24.70;;;;;;;9.60;69.68;100643.63;130308;1268;108623;-80
2022/04/27 05:22:10;;;;;;;36.50;24.50;;;;;;;9.76;69.95;100645.45;130178;1268;108775;-85
2022/04/27 05:25:38;;;;;;;30.70;20.40;;;;;;;9.86;70.26;100645.77;130474;1267;108728;-82
2022/04/27 05:32:49;;;;;;;31.40;22.10;;;;;;;10.23;70.43;100647.23;130159;1268;108064;-85
2022/04/27 05:36:17;;;;;;;31.30;23.10;;;;;;;10.49;70.17;100650.89;130327;1268;108663;-86
2022/04/27 05:39:58;;;;;;;109.20;61.20;;;;;;;10.76;70.21;100652.48;129897;1274;108687;-82
2022/04/27 05:43:11;;;;;;;111.90;66.30;;;;;;;11.01;70.24;100654.34;130308;1271;108988;-86
2022/04/27 05:46:27;;;;;;;50.60;31.70;;;;;;;11.26;70.01;100654.33;130280;1268;108907;-85
2022/04/27 05:50:07;;;;;;;34.70;25.10;;;;;;;11.55;70.08;100656.55;130194;1268;107712;-83
2022/04/27 05:53:26;;;;;;;32.80;22.60;;;;;;;11.81;69.81;100657.69;130561;1268;108934;-81
2022/04/27 05:56:52;;;;;;;28.30;20.70;;;;;;;12.08;69.48;100659.50;130485;1268;109109;-84
2022/04/27 06:00:16;;;;;;;26.30;18.80;;;;;;;12.31;69.56;100662.39;130386;1268;108803;-84
2022/04/27 06:03:23;;;;;;;23.90;18.20;;;;;;;12.58;69.59;100660.34;130474;1267;108698;-83
2022/04/27 06:06:29;;;;;;;21.80;16.90;;;;;;;12.83;68.71;100661.99;130424;1268;108643;-84
2022/04/27 06:09:35;;;;;;;19.00;15.70;;;;;;;12.97;67.79;100664.96;130406;1268;108877;-84
2022/04/27 06:12:49;;;;;;;20.00;15.20;;;;;;;13.10;67.92;100671.09;130478;1268;108946;-84
2022/04/27 06:16:34;;;;;;;20.50;16.20;;;;;;;13.35;67.97;100674.98;130303;1268;108835;-84
2022/04/27 06:19:46;;;;;;;18.00;13.80;;;;;;;13.52;67.45;100677.88;130491;1268;108747;-84
2022/04/27 06:22:52;;;;;;;15.40;12.00;;;;;;;13.60;67.09;100678.24;130475;1268;108646;-84
2022/04/27 06:25:59;;;;;;;16.00;12.70;;;;;;;13.69;66.14;100682.84;130439;1268;108664;-84
2022/04/27 06:29:05;;;;;;;18.70;15.50;;;;;;;13.73;66.22;100684.59;130492;1268;108706;-84
2022/04/27 06:32:11;;;;;;;21.10;15.00;;;;;;;13.81;64.97;100693.06;130519;1268;108681;-84
2022/04/27 06:35:16;;;;;;;76.50;49.80;;;;;;;13.75;64.29;100695.58;130425;1268;108655;-82
2022/04/27 06:38:25;;;;;;;31.30;21.50;;;;;;;13.63;64.12;100696.48;130328;1268;108673;-82
2022/04/27 06:41:33;;;;;;;27.70;21.40;;;;;;;13.65;65.29;100698.27;130588;1268;108931;-82
2022/04/27 06:45:04;;;;;;;49.40;33.80;;;;;;;13.55;63.97;100700.35;130418;1267;108803;-83
2022/04/27 06:48:28;;;;;;;27.80;20.90;;;;;;;13.58;65.20;100705.09;130379;1268;108713;-81
2022/04/27 06:51:52;;;;;;;27.30;20.00;;;;;;;13.70;63.79;100712.27;130365;1267;108542;-78
2022/04/27 06:55:19;;;;;;;34.00;22.30;;;;;;;13.62;63.53;100708.79;130441;1268;108523;-80
2022/04/27 06:58:44;;;;;;;26.60;19.50;;;;;;;13.55;64.13;100706.65;130373;1268;108993;-78
2022/04/27 07:01:59;;;;;;;25.50;19.20;;;;;;;13.59;63.77;100713.77;130466;1268;109267;-79
2022/04/27 07:05:09;;;;;;;25.70;20.00;;;;;;;13.62;63.32;100716.70;130442;1268;109438;-80
2022/04/27 07:08:15;;;;;;;26.40;21.00;;;;;;;13.60;64.06;100718.00;130536;1268;108676;-81
2022/04/27 07:11:20;;;;;;;27.20;20.50;;;;;;;13.73;64.80;100719.63;130651;1267;108723;-83
2022/04/27 07:14:26;;;;;;;28.10;22.60;;;;;;;13.72;64.07;100721.36;130487;1268;108689;-80
2022/04/27 07:17:31;;;;;;;29.60;21.50;;;;;;;13.61;64.38;100721.02;130447;1268;108535;-81
2022/04/27 07:20:37;;;;;;;26.90;20.90;;;;;;;13.46;64.40;100726.55;130433;1268;108671;-81
2022/04/27 07:23:43;;;;;;;27.70;21.30;;;;;;;13.33;64.65;100729.20;130473;1268;107382;-81
2022/04/27 07:26:48;;;;;;;41.50;25.40;;;;;;;13.17;64.70;100732.41;130495;1268;108848;-80
2022/04/27 07:29:54;;;;;;;33.40;24.10;;;;;;;13.00;64.75;100733.45;130354;1268;108663;-80
2022/04/27 07:32:59;;;;;;;36.00;24.00;;;;;;;12.94;65.73;100738.51;130322;1268;108701;-80
2022/04/27 07:36:07;;;;;;;25.30;19.10;;;;;;;12.98;65.29;100741.82;130390;1268;108730;-79
2022/04/27 07:39:13;;;;;;;33.60;25.00;;;;;;;12.98;65.48;100739.89;130389;1268;108777;-80
2022/04/27 07:42:18;;;;;;;28.70;22.20;;;;;;;13.03;65.70;100741.55;130417;1268;108707;-80
2022/04/27 07:45:24;;;;;;;30.30;22.80;;;;;;;13.08;65.79;100743.48;130520;1268;108735;-80
2022/04/27 07:48:32;;;;;;;27.60;21.30;;;;;;;13.10;65.34;100743.94;130326;1268;108630;-80
2022/04/27 07:51:37;;;;;;;27.20;20.80;;;;;;;13.14;65.56;100745.50;130416;1268;108720;-80
2022/04/27 07:54:44;;;;;;;29.20;21.70;;;;;;;13.19;65.10;100746.67;130392;1268;108680;-80
2022/04/27 07:57:50;;;;;;;33.10;21.80;;;;;;;13.21;64.79;100746.05;130482;1268;108815;-80
2022/04/27 08:00:57;;;;;;;26.40;21.00;;;;;;;13.15;64.59;100749.16;130429;1268;108672;-82
2022/04/27 08:04:03;;;;;;;28.80;21.70;;;;;;;13.15;65.04;100750.45;130274;1268;108642;-79
2022/04/27 08:07:08;;;;;;;28.20;21.80;;;;;;;13.20;64.54;100748.15;130343;1268;107328;-80
2022/04/27 08:10:16;;;;;;;27.50;21.80;;;;;;;13.21;64.69;100749.27;130466;1268;108674;-79
2022/04/27 08:13:21;;;;;;;25.40;18.90;;;;;;;13.23;64.54;100751.11;130516;1267;108689;-80
2022/04/27 08:16:27;;;;;;;24.80;19.70;;;;;;;13.28;64.85;100753.23;130484;1268;108752;-79
2022/04/27 08:19:32;;;;;;;27.10;19.90;;;;;;;13.38;63.83;100757.27;130467;1268;108668;-80
2022/04/27 08:22:38;;;;;;;25.40;19.90;;;;;;;13.41;64.30;100754.46;130486;1268;108682;-79
2022/04/27 08:25:44;;;;;;;23.50;18.80;;;;;;;13.29;63.72;100759.91;130468;1266;106934;-80
2022/04/27 08:28:49;;;;;;;23.80;18.30;;;;;;;13.13;63.68;100760.16;130517;1268;108702;-80
2022/04/27 08:31:54;;;;;;;22.30;18.60;;;;;;;13.01;64.34;100762.29;130397;1267;108774;-80
2022/04/27 08:35:00;;;;;;;23.20;18.90;;;;;;;12.91;63.82;100769.15;130302;1268;108677;-80
2022/04/27 08:38:07;;;;;;;24.20;17.70;;;;;;;12.78;63.82;100768.34;130371;1268;107722;-80
2022/04/27 08:41:13;;;;;;;32.80;20.70;;;;;;;12.66;63.74;100767.71;130405;1268;108797;-80
2022/04/27 08:44:19;;;;;;;24.80;19.20;;;;;;;12.58;63.39;100769.64;130353;1266;108767;-80
2022/04/27 08:47:27;;;;;;;22.30;18.30;;;;;;;12.51;63.72;100770.08;130312;1268;109708;-79
2022/04/27 08:50:33;;;;;;;20.40;17.10;;;;;;;12.56;63.96;100770.52;130437;1268;108804;-80
2022/04/27 08:53:38;;;;;;;22.30;17.30;;;;;;;12.59;63.03;100771.12;130437;1268;108613;-80
2022/04/27 08:56:44;;;;;;;22.20;17.10;;;;;;;12.59;62.86;100773.37;130448;1268;108781;-80
2022/04/27 08:59:50;;;;;;;19.80;15.90;;;;;;;12.63;62.81;100776.08;130337;1268;108837;-80
2022/04/27 09:02:56;;;;;;;18.90;15.30;;;;;;;12.69;62.74;100775.70;130345;1268;108666;-80
2022/04/27 09:06:04;;;;;;;21.30;15.30;;;;;;;12.75;62.39;100777.02;130452;1268;108725;-82
2022/04/27 09:09:13;;;;;;;20.20;16.50;;;;;;;12.81;62.49;100774.23;130411;1268;108768;-80
2022/04/27 09:12:20;;;;;;;20.50;16.50;;;;;;;12.86;61.80;100775.00;130428;1268;108743;-80
2022/04/27 09:15:26;;;;;;;26.00;18.20;;;;;;;12.90;62.34;100778.48;130377;1268;107682;-80
2022/04/27 09:22:12;;;;;;;21.20;16.80;;;;;;;13.03;62.03;100780.65;130421;1268;108585;-81
2022/04/27 09:25:30;;;;;;;20.70;16.60;;;;;;;13.09;61.55;100783.58;130347;1267;108698;-81
2022/04/27 09:28:36;;;;;;;25.90;18.50;;;;;;;13.14;61.78;100784.83;130489;1268;108677;-80
2022/04/27 09:31:44;;;;;;;23.10;17.20;;;;;;;13.18;62.04;100782.88;130380;1268;108726;-80
2022/04/27 09:34:50;;;;;;;22.60;17.10;;;;;;;13.25;62.16;100779.58;130436;1267;108483;-80
2022/04/27 09:37:56;;;;;;;22.20;16.30;;;;;;;13.36;61.84;100781.20;130381;1267;108682;-80
2022/04/27 09:41:01;;;;;;;17.40;13.80;;;;;;;13.41;60.80;100780.36;130354;1268;108778;-81
2022/04/27 09:44:07;;;;;;;14.80;12.10;;;;;;;13.46;60.98;100781.64;130361;1268;108833;-81
2022/04/27 09:47:12;;;;;;;15.90;12.20;;;;;;;13.57;60.92;100782.94;130428;1268;108786;-81
2022/04/27 09:50:18;;;;;;;15.90;12.70;;;;;;;13.66;60.16;100784.46;130463;1268;108048;-80
2022/04/27 09:53:24;;;;;;;16.50;12.30;;;;;;;13.73;60.46;100786.50;130578;1268;108677;-80
2022/04/27 09:56:34;;;;;;;12.70;10.40;;;;;;;13.80;60.33;100787.02;130413;1268;108733;-80
2022/04/27 09:59:40;;;;;;;11.90;9.00;;;;;;;13.89;59.64;100786.23;130408;1268;106923;-80
2022/04/27 10:02:49;;;;;;;12.10;9.50;;;;;;;13.91;57.48;100784.54;130516;1266;108707;-80
2022/04/27 10:05:55;;;;;;;10.70;8.60;;;;;;;13.96;58.99;100784.79;130430;1268;108732;-80
2022/04/27 10:09:01;;;;;;;12.00;8.60;;;;;;;14.03;59.07;100783.67;130515;1268;108784;-80
2022/04/27 10:12:11;;;;;;;8.20;6.80;;;;;;;14.13;58.64;100786.92;130271;1268;109022;-80
2022/04/27 10:15:17;;;;;;;9.60;7.00;;;;;;;14.29;58.56;100784.38;130286;1268;108938;-80
2022/04/27 10:18:22;;;;;;;8.50;6.40;;;;;;;14.41;57.91;100787.92;130410;1268;108673;-80
2022/04/27 10:21:56;;;;;;;10.10;7.30;;;;;;;14.59;58.53;100785.45;130342;1268;108608;-80
2022/04/27 10:25:07;;;;;;;7.60;6.00;;;;;;;14.83;58.37;100781.02;130313;1267;108727;-80
2022/04/27 10:28:23;;;;;;;8.00;5.60;;;;;;;15.04;56.64;100782.77;130448;1268;107632;-80
2022/04/27 10:32:05;;;;;;;6.40;4.50;;;;;;;15.17;56.29;100785.17;130293;1268;108757;-80
2022/04/27 10:35:33;;;;;;;6.50;4.70;;;;;;;15.30;55.62;100786.77;130431;1267;108738;-80
2022/04/27 10:38:38;;;;;;;6.40;4.70;;;;;;;15.29;52.88;100788.83;130405;1268;107665;-80
2022/04/27 10:41:49;;;;;;;5.80;4.70;;;;;;;15.26;53.61;100789.16;130350;1265;109151;-81
2022/04/27 10:45:12;;;;;;;5.60;4.70;;;;;;;15.32;53.99;100791.21;130339;1267;109041;-81
2022/04/27 10:48:22;;;;;;;6.30;4.60;;;;;;;15.37;51.75;100793.19;130359;1268;108710;-80
2022/04/27 10:51:28;;;;;;;5.60;4.30;;;;;;;15.47;53.83;100792.29;130486;1268;108671;-81
2022/04/27 10:54:37;;;;;;;6.10;4.30;;;;;;;15.61;52.11;100791.25;130356;1267;107830;-80
2022/04/27 10:57:42;;;;;;;4.80;3.90;;;;;;;15.85;53.31;100787.08;130416;1266;107700;-80
2022/04/27 11:01:22;;;;;;;4.50;3.80;;;;;;;16.06;53.84;100789.39;130412;1268;108672;-79
2022/04/27 11:04:34;;;;;;;4.70;3.70;;;;;;;16.36;53.86;100787.56;130334;1268;108788;-80
2022/04/27 11:07:47;;;;;;;5.70;3.60;;;;;;;16.55;51.97;100786.77;130433;1268;108944;-80
2022/04/27 11:10:55;;;;;;;4.30;3.30;;;;;;;16.73;52.96;100786.54;130347;1268;108681;-80
2022/04/27 11:14:03;;;;;;;6.80;3.70;;;;;;;16.88;51.82;100786.17;130383;1268;108583;-80
2022/04/27 11:17:08;;;;;;;3.80;3.40;;;;;;;16.85;49.62;100786.13;130312;1267;108662;-80
2022/04/27 11:20:32;;;;;;;4.00;3.40;;;;;;;16.88;50.53;100784.35;130384;1268;108682;-80
2022/04/27 11:23:38;;;;;;;3.90;2.60;;;;;;;16.98;51.26;100785.02;130871;1267;108906;-80
2022/04/27 11:26:47;;;;;;;3.50;2.90;;;;;;;17.08;51.32;100781.71;130456;1268;108905;-80
2022/04/27 11:29:55;;;;;;;3.30;2.60;;;;;;;17.17;50.11;100781.09;130863;1268;108098;-80
2022/04/27 11:33:01;;;;;;;4.30;3.00;;;;;;;17.31;50.93;100782.84;130254;1268;108627;-80
2022/04/27 11:36:08;;;;;;;6.00;3.70;;;;;;;17.40;47.97;100782.14;130279;1268;108667;-79
2022/04/27 11:39:22;;;;;;;3.70;2.80;;;;;;;17.27;46.81;100785.04;130542;1267;109028;-80
2022/04/27 11:42:27;;;;;;;3.20;2.80;;;;;;;17.16;47.12;100786.96;130331;1268;108073;-80
2022/04/27 11:45:33;;;;;;;3.40;3.00;;;;;;;17.18;48.42;100786.57;130133;1270;108481;-80
2022/04/27 11:48:39;;;;;;;4.70;3.50;;;;;;;17.31;48.95;100787.42;130377;1268;108446;-80
2022/04/27 11:51:49;;;;;;;3.20;2.90;;;;;;;17.47;48.86;100789.07;130380;1268;107757;-81
2022/04/27 11:55:00;;;;;;;3.90;3.10;;;;;;;17.62;48.80;100784.02;130504;1267;109119;-80
2022/04/27 11:58:07;;;;;;;4.70;3.20;;;;;;;17.71;48.38;100786.05;130382;1266;108752;-80
2022/04/27 12:01:20;;;;;;;3.00;2.50;;;;;;;17.72;47.21;100789.48;130326;1268;108717;-81
2022/04/27 12:04:26;;;;;;;3.20;2.90;;;;;;;17.79;48.80;100784.84;130543;1267;109164;-80
2022/04/27 12:07:37;;;;;;;3.00;2.70;;;;;;;17.93;48.38;100782.80;130271;1269;108665;-80
2022/04/27 12:10:44;;;;;;;4.10;2.80;;;;;;;17.96;48.03;100777.33;130492;1268;108854;-80
2022/04/27 12:13:50;;;;;;;3.60;2.70;;;;;;;18.02;48.31;100774.45;130391;1268;108955;-82
2022/04/27 12:16:56;;;;;;;3.40;2.70;;;;;;;18.05;47.84;100775.89;130557;1267;108647;-83
2022/04/27 12:20:02;;;;;;;3.60;3.00;;;;;;;18.02;47.72;100776.97;130579;1267;108697;-80
2022/04/27 12:23:09;;;;;;;5.50;3.00;;;;;;;17.95;47.46;100772.60;130491;1268;108991;-81
2022/04/27 12:26:15;;;;;;;4.80;3.10;;;;;;;17.85;46.89;100775.63;130384;1267;108708;-81
2022/04/27 12:29:25;;;;;;;4.20;3.20;;;;;;;17.73;47.16;100777.08;130416;1267;108633;-80
2022/04/27 12:32:34;;;;;;;20.90;11.20;;;;;;;17.65;45.80;100772.17;130358;1268;109494;-80
2022/04/27 12:39:08;;;;;;;4.90;4.00;;;;;;;17.02;44.05;100776.23;130487;1268;108655;-81
2022/04/27 12:42:15;;;;;;;12.10;10.90;;;;;;;16.87;45.86;100775.33;130409;1266;108842;-81
2022/04/27 12:45:21;;;;;;;5.90;4.30;;;;;;;16.75;44.63;100776.70;130450;1268;108777;-80
2022/04/27 12:48:35;;;;;;;4.50;3.50;;;;;;;16.56;44.69;100778.08;130460;1268;108670;-81
2022/04/27 12:51:40;;;;;;;4.70;3.60;;;;;;;16.42;45.76;100775.49;130533;1268;107755;-80
2022/04/27 12:54:47;;;;;;;5.50;4.10;;;;;;;16.42;45.61;100778.10;130476;1268;109471;-80
2022/04/27 12:57:55;;;;;;;5.90;3.70;;;;;;;16.31;44.96;100778.06;130453;1268;108855;-80
2022/04/27 13:01:01;;;;;;;6.70;3.90;;;;;;;16.26;45.85;100778.66;130316;1268;108912;-80
2022/04/27 13:04:07;;;;;;;5.30;4.00;;;;;;;16.21;45.19;100779.37;130350;1268;108660;-80
2022/04/27 13:07:12;;;;;;;4.70;3.80;;;;;;;16.04;43.59;100780.67;130344;1268;107627;-81
2022/04/27 13:13:42;;;;;;;5.60;3.80;;;;;;;15.74;44.01;100777.10;130298;1267;108629;-80
2022/04/27 13:16:48;;;;;;;4.30;3.60;;;;;;;15.66;44.73;100782.58;130394;1267;108697;-83
2022/04/27 13:19:53;;;;;;;4.40;3.60;;;;;;;15.67;44.46;100782.60;130337;1268;106978;-83
2022/04/27 13:22:59;;;;;;;3.50;3.00;;;;;;;15.61;43.95;100778.46;130431;1268;108759;-83
2022/04/27 13:26:04;;;;;;;5.90;3.40;;;;;;;15.57;44.31;100779.36;130494;1268;108941;-82
2022/04/27 13:29:09;;;;;;;5.00;3.50;;;;;;;15.55;44.28;100783.30;130481;1268;109069;-82
2022/04/27 13:32:15;;;;;;;3.30;2.80;;;;;;;15.54;44.67;100781.65;130437;1266;108672;-82
2022/04/27 13:35:21;;;;;;;4.30;3.20;;;;;;;15.59;43.27;100779.61;130346;1268;108892;-81
2022/04/27 13:38:27;;;;;;;4.60;3.10;;;;;;;15.58;43.81;100782.07;130251;1268;190316;-82
2022/04/27 13:44:54;;;;;;;4.90;2.60;;;;;;;15.56;42.44;100776.08;130351;1268;108692;-82
2022/04/27 13:48:00;;;;;;;4.20;2.70;;;;;;;15.49;42.99;100778.20;130389;1268;108704;-82
2022/04/27 13:51:05;;;;;;;5.30;2.60;;;;;;;15.53;43.74;100778.69;130476;1268;108669;-82
2022/04/27 13:54:12;;;;;;;9.00;4.90;;;;;;;15.58;42.99;100780.80;130566;1268;108754;-79
2022/04/27 13:57:18;;;;;;;9.20;3.40;;;;;;;15.59;42.72;100777.65;130533;1268;107650;-83
2022/04/27 14:00:24;;;;;;;8.10;3.20;;;;;;;15.61;42.64;100778.30;130370;1268;108709;-83
2022/04/27 14:03:30;;;;;;;9.00;3.60;;;;;;;15.67;42.76;100774.41;130419;1268;108545;-84
2022/04/27 14:06:35;;;;;;;7.80;3.50;;;;;;;15.74;42.84;100775.09;130450;1268;108578;-82
2022/04/27 14:09:41;;;;;;;12.10;9.30;;;;;;;15.77;42.05;100773.70;130386;1268;108632;-83
2022/04/27 14:19:48;;;;;;;4.70;2.90;;;;;;;15.79;42.14;100773.12;130036;1268;108833;-81
2022/04/27 14:22:53;;;;;;;4.90;2.50;;;;;;;15.75;41.28;100770.34;130495;1268;109112;-81
2022/04/27 14:25:59;;;;;;;3.40;2.50;;;;;;;15.76;42.12;100769.52;130437;1268;108790;-81
2022/04/27 14:29:04;;;;;;;7.80;3.60;;;;;;;15.83;42.51;100768.98;130372;1268;108652;-81
2022/04/27 14:32:10;;;;;;;4.20;2.80;;;;;;;15.87;41.15;100768.82;130445;1267;108655;-82
2022/04/27 14:35:16;;;;;;;2.40;2.20;;;;;;;15.92;42.19;100764.39;130601;1268;108812;-82
2022/04/27 14:38:23;;;;;;;2.90;2.30;;;;;;;16.05;42.50;100765.45;130435;1268;108924;-82
2022/04/27 14:41:30;;;;;;;3.80;2.30;;;;;;;16.22;42.51;100765.49;130406;1268;108668;-80
2022/04/27 14:44:36;;;;;;;3.50;2.30;;;;;;;16.30;41.61;100767.60;130461;1267;108692;-78
2022/04/27 14:47:42;;;;;;;5.10;3.10;;;;;;;16.27;41.56;100764.89;130411;1268;108608;-80